Time;durP1;ratioP1;P1;durP2;ratioP2;P2;SDS_P1;SDS_P2;PMS_P1;PMS_P2;Temp;Humidity;BMP_temperature;BMP_pressure;BME280_temperature;BME280_humidity;BME280_pressure;Samples;Min_cycle;Max_cycle;Signal;HPM_P1;HPM_P2
2022/09/30 00:00:58;;;;;;;10.38;6.35;;;;;;;;;;5135802;27;20075;-75
2022/09/30 00:03:44;;;;;;;12.88;6.47;;;;;;;;;;5135567;27;20016;-74
2022/09/30 00:06:30;;;;;;;8.57;5.70;;;;;;;;;;5135413;27;20444;-74
2022/09/30 00:09:16;;;;;;;14.18;6.18;;;;;;;;;;5119432;27;20027;-76
2022/09/30 00:12:01;;;;;;;9.40;5.30;;;;;;;;;;5135984;27;20019;-74
2022/09/30 00:14:47;;;;;;;10.10;5.40;;;;;;;;;;5135142;27;20064;-74
2022/09/30 00:17:33;;;;;;;8.23;5.80;;;;;;;;;;5119935;27;20019;-74
2022/09/30 00:20:18;;;;;;;9.48;5.45;;;;;;;;;;5134442;27;20026;-74
2022/09/30 00:23:04;;;;;;;11.32;5.55;;;;;;;;;;5120928;27;20023;-74
2022/09/30 00:25:55;;;;;;;9.77;5.35;;;;;;;;;;5134350;27;20026;-74
2022/09/30 00:28:42;;;;;;;11.68;5.90;;;;;;;;;;5134393;27;20035;-74
2022/09/30 00:31:29;;;;;;;9.60;5.57;;;;;;;;;;5119048;27;20095;-74
2022/09/30 00:34:17;;;;;;;10.15;5.30;;;;;;;;;;5134692;27;20060;-75
2022/09/30 00:37:02;;;;;;;10.10;5.20;;;;;;;;;;5134137;27;20100;-75
2022/09/30 00:39:48;;;;;;;9.15;5.35;;;;;;;;;;5120458;27;20023;-74
2022/09/30 00:42:34;;;;;;;9.57;5.13;;;;;;;;;;5134570;27;20007;-74
2022/09/30 00:45:20;;;;;;;7.53;4.40;;;;;;;;;;5134447;27;20448;-75
2022/09/30 00:48:15;;;;;;;13.60;4.95;;;;;;;;;;5120487;27;20038;-74
2022/09/30 00:51:01;;;;;;;7.00;4.75;;;;;;;;;;5135139;27;20106;-74
2022/09/30 00:53:50;;;;;;;7.53;4.80;;;;;;;;;;5119465;28;20039;-75
2022/09/30 00:56:39;;;;;;;12.80;5.63;;;;;;;;;;5134895;28;20023;-75
2022/09/30 00:59:27;;;;;;;7.45;5.32;;;;;;;;;;5134191;28;20020;-74
2022/09/30 01:02:13;;;;;;;10.20;4.90;;;;;;;;;;5134174;28;20015;-74
2022/09/30 01:04:58;;;;;;;9.32;4.93;;;;;;;;;;5134078;28;20107;-74
2022/09/30 01:07:45;;;;;;;8.40;5.03;;;;;;;;;;5118691;28;20016;-73
2022/09/30 01:10:30;;;;;;;10.40;6.10;;;;;;;;;;5134817;28;20015;-74
2022/09/30 01:13:17;;;;;;;13.02;6.10;;;;;;;;;;5119589;28;20035;-74
2022/09/30 01:16:15;;;;;;;10.63;5.85;;;;;;;;;;5134274;28;20352;-73
2022/09/30 01:19:10;;;;;;;12.75;5.78;;;;;;;;;;5133927;28;20035;-75
2022/09/30 01:22:14;;;;;;;15.25;5.82;;;;;;;;;;5135074;28;20026;-73
2022/09/30 01:25:12;;;;;;;11.23;5.65;;;;;;;;;;5134392;28;20050;-74
2022/09/30 01:27:57;;;;;;;8.73;5.82;;;;;;;;;;5135051;28;20022;-73
2022/09/30 01:31:01;;;;;;;11.15;5.25;;;;;;;;;;5137785;28;20422;-73
2022/09/30 01:33:47;;;;;;;11.63;5.78;;;;;;;;;;5134338;28;20379;-73
2022/09/30 01:37:06;;;;;;;14.18;6.13;;;;;;;;;;5119427;28;20047;-74
2022/09/30 01:40:21;;;;;;;15.43;6.43;;;;;;;;;;5094970;28;20039;-75
2022/09/30 01:43:11;;;;;;;12.75;6.43;;;;;;;;;;5107328;27;20123;-74
2022/09/30 01:46:01;;;;;;;15.30;6.18;;;;;;;;;;5124266;27;20111;-75
2022/09/30 01:48:47;;;;;;;11.00;6.00;;;;;;;;;;5138571;27;20026;-74
2022/09/30 01:51:41;;;;;;;13.25;6.22;;;;;;;;;;5138560;27;20035;-75
2022/09/30 01:54:45;;;;;;;11.23;6.20;;;;;;;;;;5139667;27;20114;-75
2022/09/30 01:57:37;;;;;;;10.48;5.75;;;;;;;;;;5124763;27;20390;-75
2022/09/30 02:00:24;;;;;;;13.63;5.93;;;;;;;;;;5139530;27;20416;-74
2022/09/30 02:03:21;;;;;;;11.50;5.95;;;;;;;;;;5140444;27;20443;-75
2022/09/30 02:06:09;;;;;;;10.73;5.55;;;;;;;;;;5138799;27;20044;-75
2022/09/30 02:08:55;;;;;;;13.35;5.90;;;;;;;;;;5138957;27;20030;-76
2022/09/30 02:11:41;;;;;;;11.27;6.13;;;;;;;;;;5139040;27;20011;-75
2022/09/30 02:14:29;;;;;;;11.23;5.82;;;;;;;;;;5138733;27;20070;-74
2022/09/30 02:17:20;;;;;;;10.93;5.82;;;;;;;;;;5138212;27;20038;-75
2022/09/30 02:20:11;;;;;;;10.07;5.30;;;;;;;;;;5138901;27;20031;-76
2022/09/30 02:23:00;;;;;;;8.10;5.35;;;;;;;;;;5138699;27;20027;-76
2022/09/30 02:25:48;;;;;;;15.20;5.65;;;;;;;;;;5138019;27;20031;-75
2022/09/30 02:28:38;;;;;;;11.20;5.80;;;;;;;;;;5138244;27;20027;-76
2022/09/30 02:31:25;;;;;;;6.60;4.68;;;;;;;;;;5138043;27;20020;-75
2022/09/30 02:34:13;;;;;;;8.82;4.40;;;;;;;;;;5137104;27;20019;-75
2022/09/30 02:37:08;;;;;;;6.07;3.97;;;;;;;;;;5138074;27;20034;-75
2022/09/30 02:40:01;;;;;;;9.50;4.43;;;;;;;;;;5137126;27;20091;-75
2022/09/30 02:42:48;;;;;;;7.22;3.97;;;;;;;;;;5136699;27;20023;-75
2022/09/30 02:45:41;;;;;;;5.82;3.65;;;;;;;;;;5136746;27;20107;-76
2022/09/30 02:48:28;;;;;;;8.30;3.78;;;;;;;;;;5137070;27;20032;-75
2022/09/30 02:51:17;;;;;;;6.50;3.58;;;;;;;;;;5137401;27;20505;-75
2022/09/30 02:54:12;;;;;;;7.88;4.20;;;;;;;;;;5121427;27;20447;-74
2022/09/30 02:57:18;;;;;;;6.47;4.13;;;;;;;;;;5138411;27;20019;-74
2022/09/30 03:00:04;;;;;;;9.13;4.00;;;;;;;;;;5137560;27;20015;-75
2022/09/30 03:02:54;;;;;;;13.15;5.28;;;;;;;;;;5123709;27;20015;-74
2022/09/30 03:05:40;;;;;;;11.77;4.80;;;;;;;;;;5138838;27;20023;-74
2022/09/30 03:08:25;;;;;;;12.80;5.50;;;;;;;;;;5136648;27;20044;-75
2022/09/30 03:11:14;;;;;;;15.85;5.03;;;;;;;;;;5136076;27;20101;-75
2022/09/30 03:14:21;;;;;;;12.30;5.70;;;;;;;;;;5136880;27;20069;-75
2022/09/30 03:17:09;;;;;;;13.02;5.30;;;;;;;;;;5136604;27;20168;-75
2022/09/30 03:20:13;;;;;;;11.98;5.25;;;;;;;;;;5137152;27;20390;-75
2022/09/30 03:23:07;;;;;;;14.23;5.57;;;;;;;;;;5136229;27;20486;-76
2022/09/30 03:26:09;;;;;;;12.90;5.15;;;;;;;;;;5135413;27;20024;-75
2022/09/30 03:28:55;;;;;;;14.40;5.28;;;;;;;;;;5137040;27;20030;-75
2022/09/30 03:31:47;;;;;;;13.40;5.75;;;;;;;;;;5136252;27;20019;-75
2022/09/30 03:34:42;;;;;;;10.07;5.22;;;;;;;;;;5135632;27;20015;-75
2022/09/30 03:37:37;;;;;;;12.23;5.40;;;;;;;;;;5136726;27;20046;-74
2022/09/30 03:40:36;;;;;;;11.18;5.75;;;;;;;;;;5135945;27;20042;-74
2022/09/30 03:43:42;;;;;;;15.82;6.45;;;;;;;;;;5135800;27;20019;-74
2022/09/30 03:46:40;;;;;;;11.38;5.85;;;;;;;;;;5135525;27;20016;-75
2022/09/30 03:49:28;;;;;;;18.17;5.97;;;;;;;;;;5136353;27;20053;-74
2022/09/30 03:52:14;;;;;;;11.30;6.90;;;;;;;;;;5136212;27;20015;-75
2022/09/30 03:55:01;;;;;;;11.90;6.85;;;;;;;;;;5119925;27;20047;-76
2022/09/30 03:57:48;;;;;;;15.60;6.20;;;;;;;;;;5136052;27;20037;-75
2022/09/30 04:00:34;;;;;;;15.70;7.00;;;;;;;;;;5136692;27;20023;-76
2022/09/30 04:03:20;;;;;;;12.25;7.38;;;;;;;;;;5121163;27;20360;-76
2022/09/30 04:06:07;;;;;;;9.80;6.25;;;;;;;;;;5113961;27;20023;-75
2022/09/30 04:08:53;;;;;;;12.38;5.72;;;;;;;;;;5136659;27;20110;-75
2022/09/30 04:11:38;;;;;;;11.23;5.65;;;;;;;;;;5137486;27;20057;-74
2022/09/30 04:14:24;;;;;;;9.90;5.55;;;;;;;;;;5136039;27;20076;-76
2022/09/30 04:17:09;;;;;;;8.50;4.93;;;;;;;;;;5136921;27;20334;-73
2022/09/30 04:19:55;;;;;;;32.42;19.73;;;;;;;;;;5135996;27;20023;-74
2022/09/30 04:22:40;;;;;;;12.98;5.78;;;;;;;;;;5135142;27;20019;-73
2022/09/30 04:25:27;;;;;;;10.25;4.60;;;;;;;;;;5133989;27;20027;-73
2022/09/30 04:28:13;;;;;;;8.00;4.95;;;;;;;;;;5135317;27;20019;-75
2022/09/30 04:31:02;;;;;;;13.38;5.43;;;;;;;;;;5134661;27;20126;-76
2022/09/30 04:33:49;;;;;;;12.27;5.07;;;;;;;;;;5134569;27;20026;-76
2022/09/30 04:36:35;;;;;;;9.27;5.63;;;;;;;;;;5134811;27;20041;-75
2022/09/30 04:39:20;;;;;;;11.63;5.40;;;;;;;;;;5134719;27;20029;-75
2022/09/30 04:42:06;;;;;;;15.25;6.20;;;;;;;;;;5136279;27;20046;-75
2022/09/30 04:44:51;;;;;;;10.73;6.25;;;;;;;;;;5130373;27;20026;-75
2022/09/30 04:47:37;;;;;;;17.45;6.70;;;;;;;;;;5134333;27;20011;-75
2022/09/30 04:50:22;;;;;;;21.00;8.98;;;;;;;;;;5134823;27;20042;-75
2022/09/30 04:53:10;;;;;;;25.30;9.75;;;;;;;;;;5135004;27;20072;-75
2022/09/30 04:55:59;;;;;;;19.58;12.13;;;;;;;;;;5136418;27;20451;-74
2022/09/30 04:58:45;;;;;;;19.60;11.20;;;;;;;;;;5138870;28;20023;-76
2022/09/30 05:01:31;;;;;;;14.15;8.23;;;;;;;;;;5141916;28;20023;-76
2022/09/30 05:04:17;;;;;;;14.73;7.40;;;;;;;;;;5135935;28;20027;-75
2022/09/30 05:07:05;;;;;;;10.25;6.20;;;;;;;;;;5134524;28;20094;-75
2022/09/30 05:09:51;;;;;;;10.20;5.70;;;;;;;;;;5134919;28;20011;-75
2022/09/30 05:12:37;;;;;;;11.20;5.28;;;;;;;;;;5136494;28;20012;-75
2022/09/30 05:15:24;;;;;;;9.85;5.40;;;;;;;;;;5139095;28;20047;-75
2022/09/30 05:18:10;;;;;;;10.80;5.03;;;;;;;;;;5139717;27;20019;-75
2022/09/30 05:20:56;;;;;;;12.32;5.35;;;;;;;;;;5141521;27;20043;-75
2022/09/30 05:23:42;;;;;;;14.20;6.25;;;;;;;;;;5125997;27;20440;-74
2022/09/30 05:26:27;;;;;;;11.32;5.63;;;;;;;;;;5140295;27;20027;-74
2022/09/30 05:29:13;;;;;;;10.52;6.38;;;;;;;;;;5138502;27;20012;-75
2022/09/30 05:31:58;;;;;;;16.58;6.00;;;;;;;;;;5138843;27;20067;-75
2022/09/30 05:34:44;;;;;;;11.68;5.80;;;;;;;;;;5138839;27;20099;-75
2022/09/30 05:37:30;;;;;;;15.35;6.20;;;;;;;;;;5138840;27;20406;-75
2022/09/30 05:40:16;;;;;;;8.63;5.95;;;;;;;;;;5138486;27;20034;-75
2022/09/30 05:43:01;;;;;;;13.27;6.75;;;;;;;;;;5138192;27;20109;-75
2022/09/30 05:45:51;;;;;;;18.90;6.63;;;;;;;;;;5138528;27;20015;-75
2022/09/30 05:48:36;;;;;;;12.13;6.75;;;;;;;;;;5124168;27;20011;-75
2022/09/30 05:51:22;;;;;;;17.30;6.40;;;;;;;;;;5136872;27;20022;-75
2022/09/30 05:54:08;;;;;;;11.20;6.35;;;;;;;;;;5137262;27;20486;-76
2022/09/30 05:56:54;;;;;;;16.90;6.60;;;;;;;;;;5138194;27;20035;-74
2022/09/30 05:59:39;;;;;;;17.88;5.95;;;;;;;;;;5136958;27;20055;-75
2022/09/30 06:02:25;;;;;;;11.60;6.30;;;;;;;;;;5137701;27;20662;-75
2022/09/30 06:05:11;;;;;;;14.60;6.72;;;;;;;;;;5137656;27;20126;-75
2022/09/30 06:07:57;;;;;;;12.50;6.18;;;;;;;;;;5137908;27;20030;-75
2022/09/30 06:10:43;;;;;;;13.68;6.18;;;;;;;;;;5137668;27;20171;-75
2022/09/30 06:13:28;;;;;;;16.67;6.07;;;;;;;;;;5124176;27;20042;-75
2022/09/30 06:16:14;;;;;;;13.55;5.82;;;;;;;;;;5137904;27;20015;-74
2022/09/30 06:19:00;;;;;;;11.82;6.18;;;;;;;;;;5140896;27;20377;-75
2022/09/30 06:21:46;;;;;;;9.75;5.97;;;;;;;;;;5142531;27;20035;-74
2022/09/30 06:24:31;;;;;;;15.93;6.53;;;;;;;;;;5142090;27;20079;-73
2022/09/30 06:27:18;;;;;;;10.18;6.32;;;;;;;;;;5138974;27;20341;-74
2022/09/30 06:30:04;;;;;;;14.15;6.03;;;;;;;;;;5140930;27;20301;-74
2022/09/30 06:32:52;;;;;;;10.32;5.53;;;;;;;;;;5126069;27;20106;-75
2022/09/30 06:35:40;;;;;;;9.27;5.20;;;;;;;;;;5127139;27;20019;-75
2022/09/30 06:38:27;;;;;;;8.93;5.20;;;;;;;;;;5140700;27;20054;-74
2022/09/30 06:41:13;;;;;;;11.70;5.50;;;;;;;;;;5139517;27;20091;-74
2022/09/30 06:43:58;;;;;;;9.30;5.15;;;;;;;;;;5140266;27;20440;-75
2022/09/30 06:46:44;;;;;;;8.35;5.45;;;;;;;;;;5143577;27;20372;-75
2022/09/30 06:49:30;;;;;;;20.80;6.50;;;;;;;;;;5138745;27;20020;-74
2022/09/30 06:52:16;;;;;;;23.60;6.00;;;;;;;;;;5136933;27;20055;-74
2022/09/30 06:55:01;;;;;;;23.08;6.63;;;;;;;;;;5122090;27;20108;-74
2022/09/30 06:57:47;;;;;;;20.30;6.82;;;;;;;;;;5122811;27;20480;-76
2022/09/30 07:00:32;;;;;;;21.05;6.78;;;;;;;;;;5123068;27;20035;-75
2022/09/30 07:03:23;;;;;;;17.20;6.43;;;;;;;;;;5136548;27;20534;-75
2022/09/30 07:06:10;;;;;;;14.98;5.45;;;;;;;;;;5136525;27;20042;-75
2022/09/30 07:08:55;;;;;;;13.80;4.85;;;;;;;;;;5136037;27;20023;-75
2022/09/30 07:11:41;;;;;;;22.15;6.32;;;;;;;;;;5135807;27;20042;-75
2022/09/30 07:14:26;;;;;;;16.35;5.60;;;;;;;;;;5136157;27;20034;-75
2022/09/30 07:17:12;;;;;;;11.88;3.85;;;;;;;;;;5137102;27;20132;-75
2022/09/30 07:19:58;;;;;;;10.88;4.82;;;;;;;;;;5135680;27;20026;-74
2022/09/30 07:22:45;;;;;;;14.30;6.18;;;;;;;;;;5135634;27;20023;-76
2022/09/30 07:25:30;;;;;;;13.63;5.55;;;;;;;;;;5135844;27;20454;-75
2022/09/30 07:28:16;;;;;;;11.48;5.72;;;;;;;;;;5136080;27;20114;-75
2022/09/30 07:31:06;;;;;;;13.52;6.88;;;;;;;;;;5136788;27;20048;-75
2022/09/30 07:33:52;;;;;;;14.95;7.43;;;;;;;;;;5142241;27;20018;-75
2022/09/30 07:36:40;;;;;;;21.63;8.63;;;;;;;;;;5135769;27;20325;-75
2022/09/30 07:39:26;;;;;;;11.93;5.72;;;;;;;;;;5120217;27;20477;-74
2022/09/30 07:42:12;;;;;;;10.82;5.88;;;;;;;;;;5134956;27;20019;-75
2022/09/30 07:44:58;;;;;;;16.55;6.13;;;;;;;;;;5134910;27;20052;-75
2022/09/30 07:47:43;;;;;;;11.52;5.05;;;;;;;;;;5135417;27;20406;-75
2022/09/30 07:50:29;;;;;;;9.15;4.78;;;;;;;;;;5135211;27;20023;-74
2022/09/30 07:53:14;;;;;;;14.55;4.80;;;;;;;;;;5134975;27;20374;-75
2022/09/30 07:56:06;;;;;;;11.80;4.70;;;;;;;;;;5138534;27;20027;-75
2022/09/30 07:58:52;;;;;;;9.88;4.30;;;;;;;;;;5137753;27;20115;-75
2022/09/30 08:01:39;;;;;;;8.82;4.53;;;;;;;;;;5135012;27;20027;-75
2022/09/30 08:04:25;;;;;;;7.38;3.88;;;;;;;;;;5134579;27;20027;-74
2022/09/30 08:07:12;;;;;;;9.85;4.47;;;;;;;;;;5134462;27;20028;-75
2022/09/30 08:09:58;;;;;;;13.63;4.40;;;;;;;;;;5120169;27;20041;-75
2022/09/30 08:12:43;;;;;;;11.38;3.53;;;;;;;;;;5135226;27;20101;-75
2022/09/30 08:15:29;;;;;;;10.57;5.03;;;;;;;;;;5134291;27;20023;-75
2022/09/30 08:18:15;;;;;;;9.90;4.63;;;;;;;;;;5135023;27;20038;-75
2022/09/30 08:21:05;;;;;;;13.88;4.10;;;;;;;;;;5127446;27;20386;-75
2022/09/30 08:23:50;;;;;;;11.63;3.88;;;;;;;;;;5116061;27;20015;-75
2022/09/30 08:26:36;;;;;;;14.27;4.60;;;;;;;;;;5134033;27;20444;-75
2022/09/30 08:29:22;;;;;;;8.50;3.20;;;;;;;;;;5134556;27;20062;-75
2022/09/30 08:32:07;;;;;;;7.95;3.78;;;;;;;;;;5133984;27;20452;-75
2022/09/30 08:34:53;;;;;;;6.70;3.40;;;;;;;;;;5134394;27;20113;-76
2022/09/30 08:37:38;;;;;;;12.15;3.67;;;;;;;;;;5134295;27;20015;-76
2022/09/30 08:40:26;;;;;;;8.13;3.65;;;;;;;;;;5134693;27;20344;-75
2022/09/30 08:43:19;;;;;;;7.07;3.50;;;;;;;;;;5133968;27;20151;-76
2022/09/30 08:46:13;;;;;;;5.50;3.58;;;;;;;;;;5134838;27;20019;-75
2022/09/30 08:49:08;;;;;;;9.05;4.53;;;;;;;;;;5134759;27;20456;-75
2022/09/30 08:51:55;;;;;;;7.32;4.10;;;;;;;;;;5133741;27;20019;-75
2022/09/30 08:54:45;;;;;;;7.85;3.63;;;;;;;;;;5118784;28;20047;-75
2022/09/30 08:57:36;;;;;;;13.38;4.25;;;;;;;;;;5134779;27;20437;-75
2022/09/30 09:00:21;;;;;;;11.30;4.80;;;;;;;;;;5119558;28;20046;-74
2022/09/30 09:03:10;;;;;;;7.25;4.65;;;;;;;;;;5134661;28;20019;-75
2022/09/30 09:05:55;;;;;;;7.78;3.90;;;;;;;;;;5133812;28;20019;-75
2022/09/30 09:09:00;;;;;;;5.35;3.42;;;;;;;;;;5118684;28;20011;-75
2022/09/30 09:11:56;;;;;;;8.70;4.10;;;;;;;;;;5119415;28;20114;-75
2022/09/30 09:15:02;;;;;;;7.18;3.45;;;;;;;;;;5134274;28;20106;-75
2022/09/30 09:17:57;;;;;;;7.25;3.50;;;;;;;;;;5107943;28;20069;-76
2022/09/30 09:21:03;;;;;;;9.00;4.20;;;;;;;;;;5134815;28;20031;-75
2022/09/30 09:23:50;;;;;;;8.07;3.72;;;;;;;;;;5096248;28;20035;-75
2022/09/30 09:26:35;;;;;;;7.55;3.63;;;;;;;;;;5133726;28;20023;-74
2022/09/30 09:29:36;;;;;;;8.32;3.75;;;;;;;;;;5134644;28;20015;-75
2022/09/30 09:32:24;;;;;;;7.40;3.75;;;;;;;;;;5133751;28;20340;-74
2022/09/30 09:35:35;;;;;;;6.47;3.90;;;;;;;;;;5135181;28;20238;-76
2022/09/30 09:38:29;;;;;;;12.82;3.97;;;;;;;;;;5134562;28;20019;-76
2022/09/30 09:41:14;;;;;;;7.20;3.40;;;;;;;;;;5119020;28;20015;-75
2022/09/30 09:44:19;;;;;;;6.18;3.20;;;;;;;;;;5127496;28;20449;-75
2022/09/30 09:47:12;;;;;;;6.03;3.45;;;;;;;;;;5136075;28;20030;-76
2022/09/30 09:50:00;;;;;;;6.18;3.20;;;;;;;;;;5134970;28;20011;-75
2022/09/30 09:52:45;;;;;;;5.75;3.40;;;;;;;;;;5133881;28;20026;-76
2022/09/30 09:55:31;;;;;;;8.70;3.50;;;;;;;;;;5112639;28;20050;-75
2022/09/30 09:58:16;;;;;;;8.00;3.33;;;;;;;;;;5113870;28;20077;-75
2022/09/30 10:01:25;;;;;;;7.20;3.17;;;;;;;;;;5113093;28;20058;-75
2022/09/30 10:04:17;;;;;;;6.38;3.25;;;;;;;;;;5114861;28;20023;-74
2022/09/30 10:07:13;;;;;;;4.75;2.92;;;;;;;;;;5116582;28;20035;-77
2022/09/30 10:10:14;;;;;;;7.82;3.17;;;;;;;;;;5116569;28;20103;-76
2022/09/30 10:12:59;;;;;;;3.63;2.80;;;;;;;;;;5117694;28;20020;-75
2022/09/30 10:15:46;;;;;;;3.90;2.80;;;;;;;;;;5116606;28;20426;-76
2022/09/30 10:18:32;;;;;;;4.32;2.90;;;;;;;;;;5117862;28;20023;-76
2022/09/30 10:21:20;;;;;;;5.18;2.97;;;;;;;;;;5116365;28;20019;-76
2022/09/30 10:24:17;;;;;;;4.72;3.03;;;;;;;;;;5117525;28;20028;-75
2022/09/30 10:27:03;;;;;;;5.70;2.78;;;;;;;;;;5111385;28;20027;-76
2022/09/30 10:29:50;;;;;;;7.57;3.40;;;;;;;;;;5116698;28;20058;-75
2022/09/30 10:32:35;;;;;;;4.13;3.00;;;;;;;;;;5117759;28;20019;-75
2022/09/30 10:35:22;;;;;;;6.28;3.00;;;;;;;;;;5115674;28;20480;-75
2022/09/30 10:38:11;;;;;;;8.48;3.78;;;;;;;;;;5116556;28;20433;-75
2022/09/30 10:40:57;;;;;;;6.45;3.25;;;;;;;;;;5115904;28;20446;-74
2022/09/30 10:43:43;;;;;;;4.03;3.00;;;;;;;;;;5102420;28;20058;-75
2022/09/30 10:46:31;;;;;;;4.60;3.08;;;;;;;;;;5115585;28;20096;-76
2022/09/30 10:49:23;;;;;;;4.32;3.00;;;;;;;;;;5115671;28;20016;-74
2022/09/30 10:52:28;;;;;;;5.40;3.10;;;;;;;;;;5115462;28;20077;-75
2022/09/30 10:55:20;;;;;;;3.50;2.70;;;;;;;;;;5135936;27;20043;-76
2022/09/30 10:58:24;;;;;;;3.80;3.20;;;;;;;;;;5137028;27;20054;-75
2022/09/30 11:01:20;;;;;;;3.50;2.78;;;;;;;;;;5135878;27;20030;-74
2022/09/30 11:04:25;;;;;;;5.25;2.88;;;;;;;;;;5122943;27;20541;-73
2022/09/30 11:07:19;;;;;;;7.47;3.00;;;;;;;;;;5127629;27;20035;-75
2022/09/30 11:10:07;;;;;;;3.10;2.78;;;;;;;;;;5112017;27;20042;-76
2022/09/30 11:13:01;;;;;;;5.20;3.15;;;;;;;;;;5126569;27;20031;-75
2022/09/30 11:15:55;;;;;;;3.72;2.83;;;;;;;;;;5126985;27;20053;-75
2022/09/30 11:18:48;;;;;;;5.13;2.80;;;;;;;;;;5111526;27;20449;-75
2022/09/30 11:21:38;;;;;;;5.10;3.17;;;;;;;;;;5125126;27;20063;-75
2022/09/30 11:24:33;;;;;;;6.47;3.15;;;;;;;;;;5127533;27;20098;-75
2022/09/30 11:27:37;;;;;;;4.18;2.88;;;;;;;;;;5127340;27;20015;-76
2022/09/30 11:30:29;;;;;;;5.15;2.85;;;;;;;;;;5124089;27;20038;-74
2022/09/30 11:33:23;;;;;;;5.78;2.60;;;;;;;;;;5110644;27;20031;-74
2022/09/30 11:36:12;;;;;;;3.03;2.72;;;;;;;;;;5112713;27;20022;-73
2022/09/30 11:39:07;;;;;;;3.70;3.35;;;;;;;;;;5126439;27;20421;-76
2022/09/30 11:42:11;;;;;;;5.90;3.13;;;;;;;;;;5123285;27;20471;-74
2022/09/30 11:45:08;;;;;;;6.93;2.85;;;;;;;;;;5109225;27;20488;-77
2022/09/30 11:47:54;;;;;;;2.97;2.67;;;;;;;;;;5128022;27;20372;-76
2022/09/30 11:50:49;;;;;;;5.78;3.80;;;;;;;;;;5122655;27;20019;-75
2022/09/30 11:53:40;;;;;;;4.85;3.15;;;;;;;;;;5126709;27;20050;-76
2022/09/30 11:56:35;;;;;;;5.45;2.97;;;;;;;;;;5125259;27;20034;-73
2022/09/30 11:59:24;;;;;;;5.03;3.05;;;;;;;;;;5125223;27;20121;-75
2022/09/30 12:02:25;;;;;;;4.25;3.47;;;;;;;;;;5122417;27;20026;-72
2022/09/30 12:05:13;;;;;;;5.40;3.60;;;;;;;;;;5119475;27;20448;-71
2022/09/30 12:08:14;;;;;;;6.25;3.10;;;;;;;;;;5125516;27;20491;-73
2022/09/30 12:11:21;;;;;;;4.07;2.95;;;;;;;;;;5123370;27;20035;-74
2022/09/30 12:14:13;;;;;;;5.00;2.95;;;;;;;;;;5125558;27;20028;-76
2022/09/30 12:16:59;;;;;;;4.57;3.00;;;;;;;;;;5118866;27;20026;-75
2022/09/30 12:19:50;;;;;;;7.35;2.97;;;;;;;;;;5126112;27;20031;-74
2022/09/30 12:22:40;;;;;;;4.78;2.80;;;;;;;;;;5109335;27;20055;-74
2022/09/30 12:25:36;;;;;;;3.42;2.58;;;;;;;;;;5125212;27;20111;-75
2022/09/30 12:31:49;;;;;;;4.47;3.03;;;;;;;;;;5123486;27;20031;-75
2022/09/30 12:35:00;;;;;;;4.68;2.70;;;;;;;;;;5109836;27;20061;-75
2022/09/30 12:37:49;;;;;;;4.72;2.70;;;;;;;;;;5125569;27;20027;-74
2022/09/30 12:40:54;;;;;;;6.20;3.00;;;;;;;;;;5123400;27;20413;-75
2022/09/30 12:44:04;;;;;;;5.50;2.92;;;;;;;;;;5125072;27;20020;-74
2022/09/30 12:46:55;;;;;;;4.07;2.30;;;;;;;;;;5124876;27;20099;-75
2022/09/30 12:49:42;;;;;;;4.28;2.72;;;;;;;;;;5123926;27;20031;-75
2022/09/30 12:52:31;;;;;;;3.70;2.70;;;;;;;;;;5122813;27;20019;-76
2022/09/30 12:55:20;;;;;;;3.40;2.72;;;;;;;;;;5123377;27;20469;-75
2022/09/30 12:58:21;;;;;;;9.65;3.22;;;;;;;;;;5126043;27;20088;-76
2022/09/30 13:01:12;;;;;;;4.70;2.80;;;;;;;;;;5122506;27;20039;-75
2022/09/30 13:04:00;;;;;;;4.75;2.60;;;;;;;;;;5124425;28;20126;-75
2022/09/30 13:06:46;;;;;;;6.43;2.80;;;;;;;;;;5124492;28;20027;-75
2022/09/30 13:09:35;;;;;;;4.88;2.63;;;;;;;;;;5110274;28;20015;-75
2022/09/30 13:12:45;;;;;;;5.57;2.70;;;;;;;;;;5121639;28;20401;-74
2022/09/30 13:15:31;;;;;;;6.30;2.50;;;;;;;;;;5124472;28;20046;-75
2022/09/30 13:18:19;;;;;;;7.63;2.95;;;;;;;;;;5124821;28;20019;-75
2022/09/30 13:21:05;;;;;;;5.88;3.45;;;;;;;;;;5122099;28;20023;-75
2022/09/30 13:23:52;;;;;;;10.65;3.15;;;;;;;;;;5124015;28;20019;-74
2022/09/30 13:26:39;;;;;;;5.35;2.90;;;;;;;;;;5124889;28;20066;-74
2022/09/30 13:29:24;;;;;;;5.63;3.88;;;;;;;;;;5124490;28;21049;-74
2022/09/30 13:32:10;;;;;;;6.10;3.60;;;;;;;;;;5120475;28;20101;-74
2022/09/30 13:34:56;;;;;;;5.22;3.00;;;;;;;;;;5124274;27;20087;-75
2022/09/30 13:37:42;;;;;;;4.45;3.88;;;;;;;;;;5111449;27;20023;-75
2022/09/30 13:40:30;;;;;;;9.40;3.80;;;;;;;;;;5126456;27;20484;-75
2022/09/30 13:43:24;;;;;;;7.75;3.72;;;;;;;;;;5112250;27;20027;-75
2022/09/30 13:46:13;;;;;;;4.78;3.40;;;;;;;;;;5128648;27;20019;-75
2022/09/30 13:49:10;;;;;;;4.40;3.28;;;;;;;;;;5128139;27;20433;-73
2022/09/30 13:51:56;;;;;;;7.13;3.45;;;;;;;;;;5110467;27;20030;-72
2022/09/30 13:54:46;;;;;;;7.95;3.50;;;;;;;;;;5127706;27;20054;-75
2022/09/30 13:57:39;;;;;;;7.68;3.40;;;;;;;;;;5113255;27;20059;-72
2022/09/30 14:00:26;;;;;;;6.82;3.67;;;;;;;;;;5111031;27;20087;-73
2022/09/30 14:03:38;;;;;;;5.38;3.70;;;;;;;;;;5127843;27;20019;-73
2022/09/30 14:06:36;;;;;;;6.88;3.60;;;;;;;;;;5091490;27;20166;-73
2022/09/30 14:09:37;;;;;;;6.50;3.47;;;;;;;;;;5128518;27;20027;-73
2022/09/30 14:12:31;;;;;;;7.25;3.78;;;;;;;;;;5124830;27;20038;-73
2022/09/30 14:15:29;;;;;;;10.27;4.18;;;;;;;;;;5110565;27;20020;-76
2022/09/30 14:18:28;;;;;;;8.43;3.95;;;;;;;;;;5127076;27;20019;-75
2022/09/30 14:21:24;;;;;;;17.00;13.27;;;;;;;;;;5125155;27;20034;-74
2022/09/30 14:24:22;;;;;;;14.30;4.20;;;;;;;;;;5129198;27;20031;-75
2022/09/30 14:27:19;;;;;;;10.65;4.28;;;;;;;;;;5128810;27;20026;-72
2022/09/30 14:30:24;;;;;;;5.68;3.40;;;;;;;;;;5136437;27;20112;-73
2022/09/30 14:33:23;;;;;;;12.77;3.72;;;;;;;;;;5135287;27;20015;-72
2022/09/30 14:36:13;;;;;;;7.20;3.45;;;;;;;;;;5135255;27;20509;-71
2022/09/30 14:38:59;;;;;;;6.93;3.40;;;;;;;;;;5135839;27;20042;-71
2022/09/30 14:41:55;;;;;;;6.90;3.83;;;;;;;;;;5135309;27;20019;-72
2022/09/30 14:44:41;;;;;;;6.28;3.60;;;;;;;;;;5135345;27;20109;-71
2022/09/30 14:47:26;;;;;;;8.85;3.92;;;;;;;;;;5136397;27;20031;-71
2022/09/30 14:50:17;;;;;;;8.48;4.00;;;;;;;;;;5135358;27;20011;-70
2022/09/30 14:53:03;;;;;;;8.40;3.50;;;;;;;;;;5134307;27;20034;-70
2022/09/30 14:55:49;;;;;;;6.65;3.38;;;;;;;;;;5136146;27;20030;-71
2022/09/30 14:58:43;;;;;;;3.45;2.35;;;;;;;;;;5135881;27;20098;-71
2022/09/30 15:01:32;;;;;;;4.10;2.25;;;;;;;;;;5136043;27;20456;-70
2022/09/30 15:04:20;;;;;;;5.65;2.05;;;;;;;;;;5135678;27;20027;-71
2022/09/30 15:07:09;;;;;;;5.75;2.22;;;;;;;;;;5136443;27;20034;-71
2022/09/30 15:09:59;;;;;;;4.30;2.10;;;;;;;;;;5135594;27;20016;-71
2022/09/30 15:12:46;;;;;;;2.55;1.73;;;;;;;;;;5135714;27;20023;-72
2022/09/30 15:15:36;;;;;;;4.43;2.50;;;;;;;;;;5135575;27;20093;-71
2022/09/30 15:18:21;;;;;;;5.15;2.63;;;;;;;;;;5135288;27;20015;-71
2022/09/30 15:21:09;;;;;;;7.15;2.38;;;;;;;;;;5135143;27;20019;-70
2022/09/30 15:23:56;;;;;;;8.35;2.78;;;;;;;;;;5135683;27;20110;-71
2022/09/30 15:26:42;;;;;;;8.45;2.97;;;;;;;;;;5135426;27;20038;-72
2022/09/30 15:29:28;;;;;;;4.80;2.78;;;;;;;;;;5120311;27;20015;-71
2022/09/30 15:32:17;;;;;;;2.90;2.10;;;;;;;;;;5118784;27;20042;-70
2022/09/30 15:35:06;;;;;;;4.10;2.30;;;;;;;;;;5135230;27;20015;-72
2022/09/30 15:37:52;;;;;;;4.30;2.28;;;;;;;;;;5135426;27;20106;-71
2022/09/30 15:40:45;;;;;;;5.95;2.35;;;;;;;;;;5135060;27;20023;-72
2022/09/30 15:43:43;;;;;;;6.40;2.17;;;;;;;;;;5134941;27;20080;-71
2022/09/30 15:46:30;;;;;;;4.30;2.13;;;;;;;;;;5135353;27;20034;-71
2022/09/30 15:49:29;;;;;;;4.95;2.20;;;;;;;;;;5133037;27;20023;-70
2022/09/30 15:52:41;;;;;;;9.20;2.55;;;;;;;;;;5134900;27;20019;-71
2022/09/30 15:55:34;;;;;;;5.18;2.55;;;;;;;;;;5134563;27;20146;-70
2022/09/30 15:58:31;;;;;;;11.50;2.60;;;;;;;;;;5134543;27;20030;-69
2022/09/30 16:01:22;;;;;;;5.00;2.50;;;;;;;;;;5118944;28;20102;-71
2022/09/30 16:04:09;;;;;;;4.10;2.50;;;;;;;;;;5135067;27;20030;-70
2022/09/30 16:06:55;;;;;;;10.80;5.80;;;;;;;;;;5121160;27;20072;-72
2022/09/30 16:09:41;;;;;;;24.58;13.48;;;;;;;;;;5134521;27;20019;-71
2022/09/30 16:12:28;;;;;;;39.13;19.92;;;;;;;;;;5135017;27;20456;-70
2022/09/30 16:15:14;;;;;;;19.27;10.40;;;;;;;;;;5135402;27;20031;-71
2022/09/30 16:18:00;;;;;;;23.60;12.60;;;;;;;;;;5135839;27;20482;-72
2022/09/30 16:20:59;;;;;;;11.35;5.10;;;;;;;;;;5135857;27;20064;-71
2022/09/30 16:23:44;;;;;;;10.93;6.07;;;;;;;;;;5119156;27;20019;-71
2022/09/30 16:26:32;;;;;;;11.23;5.22;;;;;;;;;;5136440;27;20384;-72
2022/09/30 16:29:18;;;;;;;11.82;4.07;;;;;;;;;;5134718;27;20102;-71
2022/09/30 16:32:04;;;;;;;5.25;3.22;;;;;;;;;;5119712;27;20014;-71
2022/09/30 16:34:50;;;;;;;13.88;4.65;;;;;;;;;;5134484;27;20019;-70
2022/09/30 16:37:36;;;;;;;13.50;4.75;;;;;;;;;;5134845;27;20016;-70
2022/09/30 16:40:23;;;;;;;13.85;4.93;;;;;;;;;;5120624;27;20040;-71
2022/09/30 16:43:12;;;;;;;9.75;5.55;;;;;;;;;;5135038;27;20305;-71
2022/09/30 16:46:00;;;;;;;11.65;6.25;;;;;;;;;;5119952;27;20125;-70
2022/09/30 16:48:46;;;;;;;15.38;6.47;;;;;;;;;;5120433;27;20084;-71
2022/09/30 16:51:32;;;;;;;15.73;6.60;;;;;;;;;;5120208;27;20065;-71
2022/09/30 16:54:17;;;;;;;19.48;7.13;;;;;;;;;;5134281;27;20456;-71